Cosgrave, Nevada
Current Conditions -  °F | °C
As of 8:56 AM on Thursday 23 Oct 2014 (Local Time) from KWMC Reporting Station
Few Clouds Few Clouds  
Wind Chill: 54°   Ceiling: Unl
Heat Index: 54°   Visibility: 10mi
Dew Point: 29°   Wind: 0mph
Humidity: 38%   Direction: NA
Pressure: 30.13"   Gusts: NA
Location:  41.1353°N, 118.186°W
Report Text: KWMC 231556Z AUTO 00000KT 10SM FEW120 12/M02 A3013 RMK AO2 SLP179 T01221017
Loading
Personal Weather Stations






























Interactive Weather Map
Tropical Storm Tracking
New forecast layout! Learn more

10-Day Weather Forecast

Advertisements
Track Severe Weather on mobile